sensor_id;sensor_type;location;lat;lon;timestamp;pressure;altitude;pressure_sealevel;temperature;humidity
12182;BME280;6154;51.550;12.138;2023-11-21T00:00:33;99854.25;;;10.54;69.85
12182;BME280;6154;51.550;12.138;2023-11-21T00:03:02;99854.63;;;10.48;70.62
12182;BME280;6154;51.550;12.138;2023-11-21T00:05:32;99852.72;;;10.64;70.38
12182;BME280;6154;51.550;12.138;2023-11-21T00:08:00;99860.12;;;10.45;70.42
12182;BME280;6154;51.550;12.138;2023-11-21T00:10:29;99856.13;;;10.52;70.66
12182;BME280;6154;51.550;12.138;2023-11-21T00:12:57;99858.78;;;10.52;70.71
12182;BME280;6154;51.550;12.138;2023-11-21T00:15:25;99859.72;;;10.51;70.50
12182;BME280;6154;51.550;12.138;2023-11-21T00:17:54;99861.00;;;10.72;69.65
12182;BME280;6154;51.550;12.138;2023-11-21T00:20:24;99866.97;;;10.61;70.05
12182;BME280;6154;51.550;12.138;2023-11-21T00:22:51;99864.84;;;10.54;70.28
12182;BME280;6154;51.550;12.138;2023-11-21T00:25:20;99864.84;;;10.54;70.43
12182;BME280;6154;51.550;12.138;2023-11-21T00:27:48;99868.44;;;10.53;70.03
12182;BME280;6154;51.550;12.138;2023-11-21T00:30:16;99866.72;;;10.52;69.98
12182;BME280;6154;51.550;12.138;2023-11-21T00:32:45;99865.03;;;10.51;69.56
12182;BME280;6154;51.550;12.138;2023-11-21T00:35:13;99872.22;;;10.49;69.76
12182;BME280;6154;51.550;12.138;2023-11-21T00:37:42;99871.09;;;10.39;69.71
12182;BME280;6154;51.550;12.138;2023-11-21T00:40:11;99871.94;;;10.39;69.87
12182;BME280;6154;51.550;12.138;2023-11-21T00:42:42;99877.59;;;10.47;70.68
12182;BME280;6154;51.550;12.138;2023-11-21T00:45:11;99876.44;;;10.51;70.73
12182;BME280;6154;51.550;12.138;2023-11-21T00:47:39;99881.00;;;10.49;70.49
12182;BME280;6154;51.550;12.138;2023-11-21T00:50:08;99883.62;;;10.49;70.51
12182;BME280;6154;51.550;12.138;2023-11-21T00:52:37;99882.41;;;10.55;70.35
12182;BME280;6154;51.550;12.138;2023-11-21T00:55:07;99888.09;;;10.49;71.11
12182;BME280;6154;51.550;12.138;2023-11-21T00:57:35;99877.13;;;10.55;70.51
12182;BME280;6154;51.550;12.138;2023-11-21T01:00:05;99878.81;;;10.56;69.88
12182;BME280;6154;51.550;12.138;2023-11-21T01:02:43;99885.81;;;10.57;69.66
12182;BME280;6154;51.550;12.138;2023-11-21T01:05:12;99889.41;;;10.56;69.66
12182;BME280;6154;51.550;12.138;2023-11-21T01:07:41;99891.41;;;10.52;69.66
12182;BME280;6154;51.550;12.138;2023-11-21T01:10:31;99887.97;;;10.50;69.91
12182;BME280;6154;51.550;12.138;2023-11-21T01:13:21;99888.81;;;10.51;69.72
12182;BME280;6154;51.550;12.138;2023-11-21T01:15:49;99884.78;;;10.45;69.81
12182;BME280;6154;51.550;12.138;2023-11-21T01:18:19;99893.56;;;10.46;69.65
12182;BME280;6154;51.550;12.138;2023-11-21T01:20:48;99898.22;;;10.42;69.56
12182;BME280;6154;51.550;12.138;2023-11-21T01:23:29;99900.09;;;10.40;69.23
12182;BME280;6154;51.550;12.138;2023-11-21T01:25:59;99898.50;;;10.38;69.18
12182;BME280;6154;51.550;12.138;2023-11-21T01:28:29;99906.62;;;10.34;69.10
12182;BME280;6154;51.550;12.138;2023-11-21T01:31:01;99910.37;;;10.30;69.33
12182;BME280;6154;51.550;12.138;2023-11-21T01:33:30;99912.28;;;10.28;69.38
12182;BME280;6154;51.550;12.138;2023-11-21T01:35:59;99918.63;;;10.26;69.29
12182;BME280;6154;51.550;12.138;2023-11-21T01:38:27;99916.22;;;10.21;69.52
12182;BME280;6154;51.550;12.138;2023-11-21T01:40:56;99917.94;;;10.08;69.86
12182;BME280;6154;51.550;12.138;2023-11-21T01:43:31;99916.63;;;10.15;70.15
12182;BME280;6154;51.550;12.138;2023-11-21T01:46:00;99916.50;;;10.17;70.00
12182;BME280;6154;51.550;12.138;2023-11-21T01:48:28;99918.31;;;10.16;70.29
12182;BME280;6154;51.550;12.138;2023-11-21T01:50:57;99924.53;;;10.15;70.31
12182;BME280;6154;51.550;12.138;2023-11-21T01:53:25;99929.94;;;10.14;69.94
12182;BME280;6154;51.550;12.138;2023-11-21T01:55:56;99931.63;;;10.15;70.15
12182;BME280;6154;51.550;12.138;2023-11-21T01:58:25;99933.28;;;10.01;70.46
12182;BME280;6154;51.550;12.138;2023-11-21T02:00:55;99936.03;;;10.00;70.54
12182;BME280;6154;51.550;12.138;2023-11-21T02:03:31;99936.34;;;9.95;70.64
12182;BME280;6154;51.550;12.138;2023-11-21T02:06:00;99938.88;;;9.97;70.67
12182;BME280;6154;51.550;12.138;2023-11-21T02:08:47;99945.84;;;9.98;70.46
12182;BME280;6154;51.550;12.138;2023-11-21T02:11:15;99947.94;;;9.93;70.70
12182;BME280;6154;51.550;12.138;2023-11-21T02:14:04;99944.56;;;10.05;70.59
12182;BME280;6154;51.550;12.138;2023-11-21T02:16:55;99948.69;;;10.09;71.11
12182;BME280;6154;51.550;12.138;2023-11-21T02:19:24;99944.94;;;10.13;71.01
12182;BME280;6154;51.550;12.138;2023-11-21T02:21:53;99941.34;;;10.14;70.92
12182;BME280;6154;51.550;12.138;2023-11-21T02:24:23;99947.41;;;10.16;71.35
12182;BME280;6154;51.550;12.138;2023-11-21T02:26:52;99949.84;;;10.19;71.33
12182;BME280;6154;51.550;12.138;2023-11-21T02:29:21;99946.25;;;10.20;70.71
12182;BME280;6154;51.550;12.138;2023-11-21T02:31:55;99948.16;;;10.18;70.93
12182;BME280;6154;51.550;12.138;2023-11-21T02:34:23;99947.91;;;10.23;71.39
12182;BME280;6154;51.550;12.138;2023-11-21T02:36:52;99948.56;;;10.26;71.21
12182;BME280;6154;51.550;12.138;2023-11-21T02:39:22;99950.25;;;10.27;71.04
12182;BME280;6154;51.550;12.138;2023-11-21T02:41:51;99944.66;;;10.32;71.26
12182;BME280;6154;51.550;12.138;2023-11-21T02:44:21;99951.50;;;10.36;71.51
12182;BME280;6154;51.550;12.138;2023-11-21T02:46:50;99939.97;;;10.37;71.35
12182;BME280;6154;51.550;12.138;2023-11-21T02:49:18;99940.81;;;10.38;71.41
12182;BME280;6154;51.550;12.138;2023-11-21T02:51:46;99940.25;;;10.32;70.97
12182;BME280;6154;51.550;12.138;2023-11-21T02:54:14;99941.47;;;10.41;71.04
12182;BME280;6154;51.550;12.138;2023-11-21T02:56:47;99939.00;;;10.38;70.85
12182;BME280;6154;51.550;12.138;2023-11-21T02:59:16;99943.81;;;10.31;71.02
12182;BME280;6154;51.550;12.138;2023-11-21T03:01:45;99943.09;;;10.44;70.74
12182;BME280;6154;51.550;12.138;2023-11-21T03:04:13;99942.88;;;10.47;70.60
12182;BME280;6154;51.550;12.138;2023-11-21T03:06:45;99946.28;;;10.49;70.56
12182;BME280;6154;51.550;12.138;2023-11-21T03:09:14;99938.34;;;10.63;70.47
12182;BME280;6154;51.550;12.138;2023-11-21T03:11:43;99941.44;;;10.70;70.38
12182;BME280;6154;51.550;12.138;2023-11-21T03:14:13;99940.53;;;10.42;70.98
12182;BME280;6154;51.550;12.138;2023-11-21T03:16:41;99946.19;;;10.36;71.10
12182;BME280;6154;51.550;12.138;2023-11-21T03:19:12;99943.09;;;10.44;71.10
12182;BME280;6154;51.550;12.138;2023-11-21T03:21:41;99946.47;;;10.46;70.74
12182;BME280;6154;51.550;12.138;2023-11-21T03:24:10;99951.88;;;10.44;70.85
12182;BME280;6154;51.550;12.138;2023-11-21T03:26:38;99945.34;;;10.50;70.81
12182;BME280;6154;51.550;12.138;2023-11-21T03:29:06;99943.62;;;10.49;70.77
12182;BME280;6154;51.550;12.138;2023-11-21T03:31:35;99947.34;;;10.46;70.79
12182;BME280;6154;51.550;12.138;2023-11-21T03:34:05;99948.75;;;10.38;71.50
12182;BME280;6154;51.550;12.138;2023-11-21T03:36:33;99946.47;;;10.46;71.27
12182;BME280;6154;51.550;12.138;2023-11-21T03:39:01;99954.97;;;10.51;70.93
12182;BME280;6154;51.550;12.138;2023-11-21T03:41:29;99956.09;;;10.61;70.68
12182;BME280;6154;51.550;12.138;2023-11-21T03:43:57;99956.94;;;10.61;71.11
12182;BME280;6154;51.550;12.138;2023-11-21T03:46:25;99961.00;;;10.67;71.13
12182;BME280;6154;51.550;12.138;2023-11-21T03:48:55;99958.06;;;10.72;70.87
12182;BME280;6154;51.550;12.138;2023-11-21T03:51:23;99956.19;;;10.59;70.69
12182;BME280;6154;51.550;12.138;2023-11-21T03:53:51;99956.75;;;10.64;70.72
12182;BME280;6154;51.550;12.138;2023-11-21T03:56:20;99957.78;;;10.76;70.94
12182;BME280;6154;51.550;12.138;2023-11-21T03:58:49;99965.81;;;10.75;71.01
12182;BME280;6154;51.550;12.138;2023-11-21T04:01:21;99966.25;;;10.81;71.46
12182;BME280;6154;51.550;12.138;2023-11-21T04:03:50;99968.75;;;10.84;71.49
12182;BME280;6154;51.550;12.138;2023-11-21T04:06:19;99969.47;;;10.86;71.35
12182;BME280;6154;51.550;12.138;2023-11-21T04:08:48;99970.22;;;10.88;71.43
12182;BME280;6154;51.550;12.138;2023-11-21T04:11:16;99969.28;;;10.89;71.44
12182;BME280;6154;51.550;12.138;2023-11-21T04:13:44;99970.87;;;10.92;71.24
12182;BME280;6154;51.550;12.138;2023-11-21T04:16:13;99975.31;;;10.91;71.77
12182;BME280;6154;51.550;12.138;2023-11-21T04:18:42;99975.31;;;10.91;71.82
12182;BME280;6154;51.550;12.138;2023-11-21T04:21:10;99976.00;;;10.95;72.20
12182;BME280;6154;51.550;12.138;2023-11-21T04:23:40;99983.25;;;10.91;72.09
12182;BME280;6154;51.550;12.138;2023-11-21T04:26:08;99989.59;;;10.89;72.47
12182;BME280;6154;51.550;12.138;2023-11-21T04:28:36;99987.81;;;11.04;71.85
12182;BME280;6154;51.550;12.138;2023-11-21T04:31:04;99993.47;;;10.98;72.39
12182;BME280;6154;51.550;12.138;2023-11-21T04:33:32;99989.12;;;10.97;72.43
12182;BME280;6154;51.550;12.138;2023-11-21T04:36:00;99992.87;;;11.07;71.90
12182;BME280;6154;51.550;12.138;2023-11-21T04:38:28;99995.75;;;11.04;72.58
12182;BME280;6154;51.550;12.138;2023-11-21T04:40:58;99996.06;;;11.12;72.50
12182;BME280;6154;51.550;12.138;2023-11-21T04:43:29;100002.16;;;11.14;72.19
12182;BME280;6154;51.550;12.138;2023-11-21T04:45:58;100003.84;;;11.15;71.86
12182;BME280;6154;51.550;12.138;2023-11-21T04:48:26;100007.44;;;11.14;71.98
12182;BME280;6154;51.550;12.138;2023-11-21T04:50:54;100015.94;;;11.19;71.50
12182;BME280;6154;51.550;12.138;2023-11-21T04:53:23;100011.38;;;11.21;71.35
12182;BME280;6154;51.550;12.138;2023-11-21T04:55:51;100016.59;;;11.22;71.79
12182;BME280;6154;51.550;12.138;2023-11-21T04:58:21;100012.16;;;11.23;71.90
12182;BME280;6154;51.550;12.138;2023-11-21T05:00:49;100013.28;;;11.19;71.75
12182;BME280;6154;51.550;12.138;2023-11-21T05:03:17;100017.63;;;11.20;71.84
12182;BME280;6154;51.550;12.138;2023-11-21T05:05:46;100018.94;;;11.27;71.68
12182;BME280;6154;51.550;12.138;2023-11-21T05:08:14;100022.06;;;11.19;71.85
12182;BME280;6154;51.550;12.138;2023-11-21T05:10:43;100031.62;;;11.22;71.54
12182;BME280;6154;51.550;12.138;2023-11-21T05:13:11;100032.28;;;11.26;71.74
12182;BME280;6154;51.550;12.138;2023-11-21T05:15:40;100036.31;;;11.31;71.76
12182;BME280;6154;51.550;12.138;2023-11-21T05:18:09;100037.28;;;11.30;71.83
12182;BME280;6154;51.550;12.138;2023-11-21T05:20:37;100038.03;;;11.32;71.85
12182;BME280;6154;51.550;12.138;2023-11-21T05:23:06;100035.69;;;11.28;71.67
12182;BME280;6154;51.550;12.138;2023-11-21T05:25:35;100041.44;;;11.34;71.74
12182;BME280;6154;51.550;12.138;2023-11-21T05:28:07;100029.91;;;11.35;72.10
12182;BME280;6154;51.550;12.138;2023-11-21T05:30:35;100034.53;;;11.32;72.09
12182;BME280;6154;51.550;12.138;2023-11-21T05:33:04;100035.38;;;11.32;72.20
12182;BME280;6154;51.550;12.138;2023-11-21T05:35:33;100036.69;;;11.39;72.42
12182;BME280;6154;51.550;12.138;2023-11-21T05:38:01;100035.56;;;11.43;72.33
12182;BME280;6154;51.550;12.138;2023-11-21T05:40:29;100038.38;;;11.40;72.37
12182;BME280;6154;51.550;12.138;2023-11-21T05:42:57;100035.34;;;11.46;72.89
12182;BME280;6154;51.550;12.138;2023-11-21T05:45:26;100047.94;;;11.43;72.43
12182;BME280;6154;51.550;12.138;2023-11-21T05:47:55;100046.22;;;11.42;72.65
12182;BME280;6154;51.550;12.138;2023-11-21T05:50:25;100050.19;;;11.49;73.19
12182;BME280;6154;51.550;12.138;2023-11-21T05:52:53;100045.09;;;11.46;73.21
12182;BME280;6154;51.550;12.138;2023-11-21T05:55:22;100048.28;;;11.51;73.19
12182;BME280;6154;51.550;12.138;2023-11-21T05:57:53;100041.97;;;11.39;73.47
12182;BME280;6154;51.550;12.138;2023-11-21T06:00:21;100053.69;;;11.49;73.63
12182;BME280;6154;51.550;12.138;2023-11-21T06:02:50;100052.03;;;11.34;74.64
12182;BME280;6154;51.550;12.138;2023-11-21T06:05:21;100051.00;;;11.37;75.51
12182;BME280;6154;51.550;12.138;2023-11-21T06:07:52;100061.47;;;11.38;76.68
12182;BME280;6154;51.550;12.138;2023-11-21T06:10:21;100061.75;;;11.48;77.53
12182;BME280;6154;51.550;12.138;2023-11-21T06:12:52;100065.22;;;11.63;77.55
12182;BME280;6154;51.550;12.138;2023-11-21T06:15:20;100072.38;;;11.61;77.52
12182;BME280;6154;51.550;12.138;2023-11-21T06:17:51;100070.09;;;11.69;76.66
12182;BME280;6154;51.550;12.138;2023-11-21T06:20:21;100081.97;;;11.63;77.15
12182;BME280;6154;51.550;12.138;2023-11-21T06:22:51;100082.56;;;11.81;76.52
12182;BME280;6154;51.550;12.138;2023-11-21T06:25:20;100089.38;;;11.85;76.16
12182;BME280;6154;51.550;12.138;2023-11-21T06:27:49;100087.31;;;11.76;76.89
12182;BME280;6154;51.550;12.138;2023-11-21T06:30:18;100093.75;;;11.72;77.13
12182;BME280;6154;51.550;12.138;2023-11-21T06:32:47;100096.38;;;11.86;76.71
12182;BME280;6154;51.550;12.138;2023-11-21T06:35:16;100100.25;;;11.95;76.68
12182;BME280;6154;51.550;12.138;2023-11-21T06:37:44;100108.91;;;11.84;77.60
12182;BME280;6154;51.550;12.138;2023-11-21T06:40:18;100117.75;;;11.97;77.16
12182;BME280;6154;51.550;12.138;2023-11-21T06:42:48;100122.53;;;12.05;77.05
12182;BME280;6154;51.550;12.138;2023-11-21T06:45:17;100122.34;;;12.08;76.71
12182;BME280;6154;51.550;12.138;2023-11-21T06:47:47;100134.63;;;12.09;76.68
12182;BME280;6154;51.550;12.138;2023-11-21T06:50:16;100141.00;;;12.06;76.22
12182;BME280;6154;51.550;12.138;2023-11-21T06:52:44;100135.91;;;12.03;76.79
12182;BME280;6154;51.550;12.138;2023-11-21T06:55:12;100143.75;;;12.05;76.47
12182;BME280;6154;51.550;12.138;2023-11-21T06:57:42;100141.13;;;12.05;76.26
12182;BME280;6154;51.550;12.138;2023-11-21T07:00:13;100144.16;;;11.99;76.63
12182;BME280;6154;51.550;12.138;2023-11-21T07:02:44;100144.25;;;11.97;76.72
12182;BME280;6154;51.550;12.138;2023-11-21T07:05:13;100147.88;;;11.96;76.39
12182;BME280;6154;51.550;12.138;2023-11-21T07:07:42;100147.56;;;12.01;76.22
12182;BME280;6154;51.550;12.138;2023-11-21T07:10:10;100151.38;;;11.97;76.18
12182;BME280;6154;51.550;12.138;2023-11-21T07:12:39;100153.28;;;11.95;76.14
12182;BME280;6154;51.550;12.138;2023-11-21T07:15:09;100149.25;;;12.02;76.10
12182;BME280;6154;51.550;12.138;2023-11-21T07:17:38;100153.06;;;11.98;76.16
12182;BME280;6154;51.550;12.138;2023-11-21T07:20:08;100160.38;;;11.94;76.24
12182;BME280;6154;51.550;12.138;2023-11-21T07:22:38;100169.81;;;11.98;76.02
12182;BME280;6154;51.550;12.138;2023-11-21T07:25:07;100164.25;;;12.03;75.53
12182;BME280;6154;51.550;12.138;2023-11-21T07:27:36;100156.34;;;12.01;75.32
12182;BME280;6154;51.550;12.138;2023-11-21T07:30:05;100167.91;;;12.00;75.55
12182;BME280;6154;51.550;12.138;2023-11-21T07:32:37;100177.50;;;12.03;75.26
12182;BME280;6154;51.550;12.138;2023-11-21T07:35:08;100175.78;;;12.02;75.42
12182;BME280;6154;51.550;12.138;2023-11-21T07:37:37;100171.97;;;12.06;75.12
12182;BME280;6154;51.550;12.138;2023-11-21T07:40:06;100188.09;;;12.03;75.13
12182;BME280;6154;51.550;12.138;2023-11-21T07:42:36;100181.91;;;12.02;75.31
12182;BME280;6154;51.550;12.138;2023-11-21T07:45:05;100185.84;;;11.97;75.19
12182;BME280;6154;51.550;12.138;2023-11-21T07:47:34;100187.75;;;11.95;75.51
12182;BME280;6154;51.550;12.138;2023-11-21T07:50:05;100192.84;;;11.98;75.26
12182;BME280;6154;51.550;12.138;2023-11-21T07:52:34;100191.78;;;12.00;75.08
12182;BME280;6154;51.550;12.138;2023-11-21T07:55:03;100206.56;;;12.04;75.13
12182;BME280;6154;51.550;12.138;2023-11-21T07:57:32;100202.50;;;11.99;75.22
12182;BME280;6154;51.550;12.138;2023-11-21T08:00:00;100208.66;;;11.99;75.12
12182;BME280;6154;51.550;12.138;2023-11-21T08:02:38;100207.34;;;11.92;75.41
12182;BME280;6154;51.550;12.138;2023-11-21T08:05:10;100223.66;;;11.86;75.21
12182;BME280;6154;51.550;12.138;2023-11-21T08:07:51;100221.56;;;11.77;76.19
12182;BME280;6154;51.550;12.138;2023-11-21T08:10:19;100218.56;;;11.83;75.79
12182;BME280;6154;51.550;12.138;2023-11-21T08:12:48;100223.66;;;11.86;75.25
12182;BME280;6154;51.550;12.138;2023-11-21T08:15:17;100235.97;;;11.87;75.18
12182;BME280;6154;51.550;12.138;2023-11-21T08:17:46;100236.50;;;11.78;75.36
12182;BME280;6154;51.550;12.138;2023-11-21T08:20:15;100234.72;;;11.78;75.41
12182;BME280;6154;51.550;12.138;2023-11-21T08:22:45;100234.63;;;11.80;75.22
12182;BME280;6154;51.550;12.138;2023-11-21T08:25:14;100238.13;;;11.95;75.05
12182;BME280;6154;51.550;12.138;2023-11-21T08:27:44;100241.44;;;11.98;74.83
12182;BME280;6154;51.550;12.138;2023-11-21T08:30:12;100242.19;;;12.00;74.85
12182;BME280;6154;51.550;12.138;2023-11-21T08:32:43;100246.47;;;11.74;76.18
12182;BME280;6154;51.550;12.138;2023-11-21T08:35:12;100248.91;;;11.77;75.89
12182;BME280;6154;51.550;12.138;2023-11-21T08:37:41;100254.13;;;11.79;75.95
12182;BME280;6154;51.550;12.138;2023-11-21T08:40:10;100256.12;;;11.90;75.52
12182;BME280;6154;51.550;12.138;2023-11-21T08:42:43;100257.06;;;11.74;75.75
12182;BME280;6154;51.550;12.138;2023-11-21T08:45:12;100260.19;;;11.81;75.63
12182;BME280;6154;51.550;12.138;2023-11-21T08:47:40;100265.22;;;11.57;76.80
12182;BME280;6154;51.550;12.138;2023-11-21T08:50:11;100270.22;;;11.33;77.36
12182;BME280;6154;51.550;12.138;2023-11-21T08:52:41;100272.31;;;11.42;77.27
12182;BME280;6154;51.550;12.138;2023-11-21T08:55:09;100278.56;;;11.56;76.85
12182;BME280;6154;51.550;12.138;2023-11-21T08:57:40;100289.53;;;11.49;76.83
12182;BME280;6154;51.550;12.138;2023-11-21T09:00:09;100289.53;;;11.49;76.86
12182;BME280;6154;51.550;12.138;2023-11-21T09:02:39;100289.72;;;11.46;76.61
12182;BME280;6154;51.550;12.138;2023-11-21T09:05:09;100295.38;;;11.40;76.76
12182;BME280;6154;51.550;12.138;2023-11-21T09:07:39;100293.22;;;11.33;76.95
12182;BME280;6154;51.550;12.138;2023-11-21T09:10:10;100304.81;;;11.30;77.03
12182;BME280;6154;51.550;12.138;2023-11-21T09:12:39;100302.56;;;11.38;76.93
12182;BME280;6154;51.550;12.138;2023-11-21T09:15:09;100312.88;;;11.29;77.00
12182;BME280;6154;51.550;12.138;2023-11-21T09:17:39;100314.13;;;11.37;76.98
12182;BME280;6154;51.550;12.138;2023-11-21T09:20:08;100323.25;;;11.17;76.98
12182;BME280;6154;51.550;12.138;2023-11-21T09:22:37;100326.41;;;11.24;76.66
12182;BME280;6154;51.550;12.138;2023-11-21T09:25:06;100326.53;;;11.37;76.34
12182;BME280;6154;51.550;12.138;2023-11-21T09:27:36;100335.31;;;11.23;76.42
12182;BME280;6154;51.550;12.138;2023-11-21T09:30:06;100332.31;;;11.43;76.06
12182;BME280;6154;51.550;12.138;2023-11-21T09:32:37;100341.38;;;11.39;76.42
12182;BME280;6154;51.550;12.138;2023-11-21T09:35:08;100334.41;;;11.52;75.78
12182;BME280;6154;51.550;12.138;2023-11-21T09:37:37;100339.03;;;11.49;75.57
12182;BME280;6154;51.550;12.138;2023-11-21T09:40:10;100338.56;;;11.57;75.28
12182;BME280;6154;51.550;12.138;2023-11-21T09:42:45;100347.34;;;11.43;75.40
12182;BME280;6154;51.550;12.138;2023-11-21T09:45:20;100349.19;;;11.27;75.39
12182;BME280;6154;51.550;12.138;2023-11-21T09:47:52;100352.91;;;11.24;75.37
12182;BME280;6154;51.550;12.138;2023-11-21T09:50:21;100348.53;;;11.23;75.40
12182;BME280;6154;51.550;12.138;2023-11-21T09:52:55;100347.50;;;11.26;75.59
12182;BME280;6154;51.550;12.138;2023-11-21T09:55:27;100358.34;;;11.21;75.48
12182;BME280;6154;51.550;12.138;2023-11-21T09:57:58;100351.66;;;11.30;75.22
12182;BME280;6154;51.550;12.138;2023-11-21T10:00:27;100367.00;;;11.39;74.91
12182;BME280;6154;51.550;12.138;2023-11-21T10:02:58;100367.31;;;11.34;74.87
12182;BME280;6154;51.550;12.138;2023-11-21T10:05:26;100363.28;;;11.13;75.33
12182;BME280;6154;51.550;12.138;2023-11-21T10:07:55;100366.22;;;11.22;75.39
12182;BME280;6154;51.550;12.138;2023-11-21T10:10:25;100362.75;;;11.36;75.00
12182;BME280;6154;51.550;12.138;2023-11-21T10:12:58;100358.50;;;11.34;74.93
12182;BME280;6154;51.550;12.138;2023-11-21T10:15:30;100357.78;;;11.60;74.42
12182;BME280;6154;51.550;12.138;2023-11-21T10:18:02;100362.06;;;11.63;74.33
12182;BME280;6154;51.550;12.138;2023-11-21T10:20:33;100362.91;;;11.77;73.82
12182;BME280;6154;51.550;12.138;2023-11-21T10:23:01;100359.72;;;11.72;73.73
12182;BME280;6154;51.550;12.138;2023-11-21T10:25:30;100359.16;;;11.82;73.50
12182;BME280;6154;51.550;12.138;2023-11-21T10:28:02;100364.28;;;11.85;73.17
12182;BME280;6154;51.550;12.138;2023-11-21T10:30:34;100362.75;;;11.80;72.89
12182;BME280;6154;51.550;12.138;2023-11-21T10:33:05;100364.44;;;11.82;73.03
12182;BME280;6154;51.550;12.138;2023-11-21T10:35:44;100370.44;;;11.85;73.17
12182;BME280;6154;51.550;12.138;2023-11-21T10:38:18;100366.63;;;11.89;73.15
12182;BME280;6154;51.550;12.138;2023-11-21T10:40:48;100376.59;;;11.86;73.00
12182;BME280;6154;51.550;12.138;2023-11-21T10:43:18;100376.69;;;12.13;72.89
12182;BME280;6154;51.550;12.138;2023-11-21T10:45:46;100382.00;;;12.13;72.78
12182;BME280;6154;51.550;12.138;2023-11-21T10:48:15;100382.84;;;12.13;72.60
12182;BME280;6154;51.550;12.138;2023-11-21T10:50:44;100385.84;;;12.21;72.10
12182;BME280;6154;51.550;12.138;2023-11-21T10:53:13;100384.94;;;11.94;72.18
12182;BME280;6154;51.550;12.138;2023-11-21T10:55:46;100384.38;;;12.03;71.90
12182;BME280;6154;51.550;12.138;2023-11-21T10:58:14;100386.94;;;12.04;71.75
12182;BME280;6154;51.550;12.138;2023-11-21T11:00:44;100384.53;;;12.00;71.61
12182;BME280;6154;51.550;12.138;2023-11-21T11:03:13;100389.37;;;11.93;71.92
12182;BME280;6154;51.550;12.138;2023-11-21T11:05:44;100398.22;;;11.64;72.05
12182;BME280;6154;51.550;12.138;2023-11-21T11:08:21;100403.69;;;11.61;72.76
12182;BME280;6154;51.550;12.138;2023-11-21T11:10:55;100396.78;;;11.58;72.64
12182;BME280;6154;51.550;12.138;2023-11-21T11:13:23;100409.59;;;11.66;72.76
12182;BME280;6154;51.550;12.138;2023-11-21T11:15:57;100411.06;;;11.56;72.95
12182;BME280;6154;51.550;12.138;2023-11-21T11:18:28;100409.59;;;11.36;73.22
12182;BME280;6154;51.550;12.138;2023-11-21T11:21:01;100415.53;;;11.25;73.16
12182;BME280;6154;51.550;12.138;2023-11-21T11:23:46;100414.75;;;11.23;73.39
12182;BME280;6154;51.550;12.138;2023-11-21T11:26:26;100414.97;;;11.04;73.80
12182;BME280;6154;51.550;12.138;2023-11-21T11:29:10;100429.91;;;11.05;73.77
12182;BME280;6154;51.550;12.138;2023-11-21T11:31:50;100429.16;;;10.87;74.64
12182;BME280;6154;51.550;12.138;2023-11-21T11:34:28;100435.47;;;10.85;74.86
12182;BME280;6154;51.550;12.138;2023-11-21T11:37:01;100437.53;;;10.96;74.68
12182;BME280;6154;51.550;12.138;2023-11-21T11:39:34;100452.22;;;10.85;74.80
12182;BME280;6154;51.550;12.138;2023-11-21T11:42:07;100452.56;;;10.63;74.20
12182;BME280;6154;51.550;12.138;2023-11-21T11:44:50;100456.63;;;10.53;73.70
12182;BME280;6154;51.550;12.138;2023-11-21T11:47:23;100458.28;;;10.23;73.64
12182;BME280;6154;51.550;12.138;2023-11-21T11:52:45;100469.16;;;10.17;73.99
12182;BME280;6154;51.550;12.138;2023-11-21T11:55:15;100473.88;;;10.10;73.92
12182;BME280;6154;51.550;12.138;2023-11-21T11:57:45;100489.28;;;10.19;73.87
12182;BME280;6154;51.550;12.138;2023-11-21T12:00:16;100482.00;;;10.07;73.79
12182;BME280;6154;51.550;12.138;2023-11-21T12:02:49;100487.56;;;10.18;73.91
12182;BME280;6154;51.550;12.138;2023-11-21T12:05:19;100503.88;;;9.93;73.89
12182;BME280;6154;51.550;12.138;2023-11-21T12:07:49;100501.78;;;9.83;72.93
12182;BME280;6154;51.550;12.138;2023-11-21T12:10:21;100502.75;;;9.97;72.34
12182;BME280;6154;51.550;12.138;2023-11-21T12:12:53;100501.34;;;10.07;72.20
12182;BME280;6154;51.550;12.138;2023-11-21T12:15:21;100495.38;;;10.04;71.60
12182;BME280;6154;51.550;12.138;2023-11-21T12:17:52;100502.69;;;9.99;71.51
12182;BME280;6154;51.550;12.138;2023-11-21T12:20:22;100511.94;;;10.07;71.72
12182;BME280;6154;51.550;12.138;2023-11-21T12:22:52;100515.13;;;10.14;71.59
12182;BME280;6154;51.550;12.138;2023-11-21T12:25:21;100518.63;;;10.15;71.31
12182;BME280;6154;51.550;12.138;2023-11-21T12:27:51;100517.59;;;10.17;71.03
12182;BME280;6154;51.550;12.138;2023-11-21T12:30:21;100524.59;;;10.18;71.02
12182;BME280;6154;51.550;12.138;2023-11-21T12:32:52;100527.56;;;10.12;71.05
12182;BME280;6154;51.550;12.138;2023-11-21T12:35:23;100526.31;;;10.19;70.73
12182;BME280;6154;51.550;12.138;2023-11-21T12:37:55;100534.88;;;10.07;70.50
12182;BME280;6154;51.550;12.138;2023-11-21T12:40:25;100530.91;;;10.16;70.66
12182;BME280;6154;51.550;12.138;2023-11-21T12:42:55;100542.06;;;10.22;70.11
12182;BME280;6154;51.550;12.138;2023-11-21T12:45:25;100542.59;;;10.29;70.22
12182;BME280;6154;51.550;12.138;2023-11-21T12:47:58;100540.78;;;10.29;69.86
12182;BME280;6154;51.550;12.138;2023-11-21T12:50:28;100540.88;;;10.28;69.38
12182;BME280;6154;51.550;12.138;2023-11-21T12:53:00;100545.13;;;10.30;69.30
12182;BME280;6154;51.550;12.138;2023-11-21T12:55:30;100548.22;;;10.23;69.08
12182;BME280;6154;51.550;12.138;2023-11-21T12:58:01;100558.69;;;10.24;69.15
12182;BME280;6154;51.550;12.138;2023-11-21T13:00:36;100556.31;;;10.18;69.01
12182;BME280;6154;51.550;12.138;2023-11-21T13:03:09;100558.38;;;10.13;68.50
12182;BME280;6154;51.550;12.138;2023-11-21T13:05:40;100554.91;;;10.11;68.40
12182;BME280;6154;51.550;12.138;2023-11-21T13:08:14;100556.28;;;10.02;68.02
12182;BME280;6154;51.550;12.138;2023-11-21T13:10:49;100552.34;;;10.09;68.21
12182;BME280;6154;51.550;12.138;2023-11-21T13:13:17;100562.06;;;9.92;67.72